sensor_id;sensor_type;location;lat;lon;timestamp;temperature;humidity
39519;DHT22;25200;53.394;10.414;2024-02-14T00:02:11;6.10;96.20
39519;DHT22;25200;53.394;10.414;2024-02-14T00:04:37;6.10;96.30
39519;DHT22;25200;53.394;10.414;2024-02-14T00:07:04;6.10;96.20
39519;DHT22;25200;53.394;10.414;2024-02-14T00:09:30;6.10;96.30
39519;DHT22;25200;53.394;10.414;2024-02-14T00:11:56;6.10;96.30
39519;DHT22;25200;53.394;10.414;2024-02-14T00:14:21;6.00;96.30
39519;DHT22;25200;53.394;10.414;2024-02-14T00:16:47;6.00;96.20
39519;DHT22;25200;53.394;10.414;2024-02-14T00:19:13;6.00;96.30
39519;DHT22;25200;53.394;10.414;2024-02-14T00:21:39;6.00;96.30
39519;DHT22;25200;53.394;10.414;2024-02-14T00:24:05;6.00;96.30
39519;DHT22;25200;53.394;10.414;2024-02-14T00:26:31;6.00;96.30
39519;DHT22;25200;53.394;10.414;2024-02-14T00:28:56;6.00;96.30
39519;DHT22;25200;53.394;10.414;2024-02-14T00:31:22;6.00;96.30
39519;DHT22;25200;53.394;10.414;2024-02-14T00:33:48;6.00;96.30
39519;DHT22;25200;53.394;10.414;2024-02-14T00:36:13;6.00;96.20
39519;DHT22;25200;53.394;10.414;2024-02-14T00:38:39;6.00;96.20
39519;DHT22;25200;53.394;10.414;2024-02-14T00:41:05;6.00;96.20
39519;DHT22;25200;53.394;10.414;2024-02-14T00:43:30;6.00;96.30
39519;DHT22;25200;53.394;10.414;2024-02-14T00:45:56;6.00;96.30
39519;DHT22;25200;53.394;10.414;2024-02-14T00:48:22;6.00;96.20
39519;DHT22;25200;53.394;10.414;2024-02-14T00:50:48;6.00;96.20
39519;DHT22;25200;53.394;10.414;2024-02-14T00:53:14;6.00;96.20
39519;DHT22;25200;53.394;10.414;2024-02-14T00:55:40;6.00;96.30
39519;DHT22;25200;53.394;10.414;2024-02-14T00:58:05;6.00;96.30
39519;DHT22;25200;53.394;10.414;2024-02-14T01:00:31;6.00;96.30
39519;DHT22;25200;53.394;10.414;2024-02-14T01:02:59;6.00;96.30
39519;DHT22;25200;53.394;10.414;2024-02-14T01:05:25;6.00;96.30
39519;DHT22;25200;53.394;10.414;2024-02-14T01:07:51;6.00;96.30
39519;DHT22;25200;53.394;10.414;2024-02-14T01:10:16;6.00;96.30
39519;DHT22;25200;53.394;10.414;2024-02-14T01:12:43;6.00;96.30
39519;DHT22;25200;53.394;10.414;2024-02-14T01:15:09;6.00;96.30
39519;DHT22;25200;53.394;10.414;2024-02-14T01:17:35;6.00;96.30
39519;DHT22;25200;53.394;10.414;2024-02-14T01:20:02;6.00;96.30
39519;DHT22;25200;53.394;10.414;2024-02-14T01:22:28;6.00;96.30
39519;DHT22;25200;53.394;10.414;2024-02-14T01:24:54;6.00;96.30
39519;DHT22;25200;53.394;10.414;2024-02-14T01:27:20;6.00;96.30
39519;DHT22;25200;53.394;10.414;2024-02-14T01:29:48;6.00;96.30
39519;DHT22;25200;53.394;10.414;2024-02-14T01:32:14;6.10;96.30
39519;DHT22;25200;53.394;10.414;2024-02-14T01:34:40;6.10;96.30
39519;DHT22;25200;53.394;10.414;2024-02-14T01:37:09;6.10;96.30
39519;DHT22;25200;53.394;10.414;2024-02-14T01:39:37;6.10;96.30
39519;DHT22;25200;53.394;10.414;2024-02-14T01:42:03;6.10;96.30
39519;DHT22;25200;53.394;10.414;2024-02-14T01:44:32;6.10;96.30
39519;DHT22;25200;53.394;10.414;2024-02-14T01:46:59;6.10;96.30
39519;DHT22;25200;53.394;10.414;2024-02-14T01:49:25;6.10;96.30
39519;DHT22;25200;53.394;10.414;2024-02-14T01:51:55;6.10;96.30
39519;DHT22;25200;53.394;10.414;2024-02-14T01:54:25;6.10;96.30
39519;DHT22;25200;53.394;10.414;2024-02-14T01:56:51;6.10;96.30
39519;DHT22;25200;53.394;10.414;2024-02-14T01:59:17;6.10;96.30
39519;DHT22;25200;53.394;10.414;2024-02-14T02:01:43;6.10;96.30
39519;DHT22;25200;53.394;10.414;2024-02-14T02:04:09;6.10;96.30
39519;DHT22;25200;53.394;10.414;2024-02-14T02:06:35;6.10;96.30
39519;DHT22;25200;53.394;10.414;2024-02-14T02:09:01;6.10;96.30
39519;DHT22;25200;53.394;10.414;2024-02-14T02:11:27;6.10;96.30
39519;DHT22;25200;53.394;10.414;2024-02-14T02:13:52;6.10;96.30
39519;DHT22;25200;53.394;10.414;2024-02-14T02:16:18;6.10;96.30
39519;DHT22;25200;53.394;10.414;2024-02-14T02:18:45;6.10;96.30
39519;DHT22;25200;53.394;10.414;2024-02-14T02:21:11;6.10;96.30
39519;DHT22;25200;53.394;10.414;2024-02-14T02:23:38;6.10;96.30
39519;DHT22;25200;53.394;10.414;2024-02-14T02:26:06;6.10;96.30
39519;DHT22;25200;53.394;10.414;2024-02-14T02:28:31;6.10;96.30
39519;DHT22;25200;53.394;10.414;2024-02-14T02:30:57;6.10;96.30
39519;DHT22;25200;53.394;10.414;2024-02-14T02:33:23;6.10;96.30
39519;DHT22;25200;53.394;10.414;2024-02-14T02:35:50;6.10;96.30
39519;DHT22;25200;53.394;10.414;2024-02-14T02:38:16;6.10;96.30
39519;DHT22;25200;53.394;10.414;2024-02-14T02:40:43;6.10;96.30
39519;DHT22;25200;53.394;10.414;2024-02-14T02:43:09;6.20;96.40
39519;DHT22;25200;53.394;10.414;2024-02-14T02:45:35;6.20;96.30
39519;DHT22;25200;53.394;10.414;2024-02-14T02:48:01;6.10;96.30
39519;DHT22;25200;53.394;10.414;2024-02-14T02:50:27;6.20;96.30
39519;DHT22;25200;53.394;10.414;2024-02-14T02:52:54;6.10;96.30
39519;DHT22;25200;53.394;10.414;2024-02-14T02:55:20;6.20;96.40
39519;DHT22;25200;53.394;10.414;2024-02-14T02:57:46;6.20;96.40
39519;DHT22;25200;53.394;10.414;2024-02-14T03:00:12;6.20;96.40
39519;DHT22;25200;53.394;10.414;2024-02-14T03:02:39;6.10;96.40
39519;DHT22;25200;53.394;10.414;2024-02-14T03:05:07;6.10;96.30
39519;DHT22;25200;53.394;10.414;2024-02-14T03:07:38;6.20;96.40
39519;DHT22;25200;53.394;10.414;2024-02-14T03:10:05;6.10;96.30
39519;DHT22;25200;53.394;10.414;2024-02-14T03:12:30;6.20;96.40
39519;DHT22;25200;53.394;10.414;2024-02-14T03:14:57;6.10;96.40
39519;DHT22;25200;53.394;10.414;2024-02-14T03:17:25;6.10;96.40
39519;DHT22;25200;53.394;10.414;2024-02-14T03:19:51;6.10;96.40
39519;DHT22;25200;53.394;10.414;2024-02-14T03:22:17;6.20;96.40
39519;DHT22;25200;53.394;10.414;2024-02-14T03:24:44;6.10;96.40
39519;DHT22;25200;53.394;10.414;2024-02-14T03:27:12;6.10;96.40
39519;DHT22;25200;53.394;10.414;2024-02-14T03:29:37;6.10;96.40
39519;DHT22;25200;53.394;10.414;2024-02-14T03:32:05;6.10;96.40
39519;DHT22;25200;53.394;10.414;2024-02-14T03:34:34;6.20;96.40
39519;DHT22;25200;53.394;10.414;2024-02-14T03:37:01;6.10;96.40
39519;DHT22;25200;53.394;10.414;2024-02-14T03:39:28;6.10;96.40
39519;DHT22;25200;53.394;10.414;2024-02-14T03:41:54;6.10;96.60
39519;DHT22;25200;53.394;10.414;2024-02-14T03:44:21;6.20;96.50
39519;DHT22;25200;53.394;10.414;2024-02-14T03:46:47;6.20;96.50
39519;DHT22;25200;53.394;10.414;2024-02-14T03:49:13;6.20;96.50
39519;DHT22;25200;53.394;10.414;2024-02-14T03:51:38;6.20;96.50
39519;DHT22;25200;53.394;10.414;2024-02-14T03:54:05;6.20;96.50
39519;DHT22;25200;53.394;10.414;2024-02-14T03:56:31;6.10;96.50
39519;DHT22;25200;53.394;10.414;2024-02-14T03:58:59;6.20;96.40
39519;DHT22;25200;53.394;10.414;2024-02-14T04:01:25;6.20;96.40
39519;DHT22;25200;53.394;10.414;2024-02-14T04:03:50;6.20;96.50
39519;DHT22;25200;53.394;10.414;2024-02-14T04:06:16;6.20;96.50
39519;DHT22;25200;53.394;10.414;2024-02-14T04:08:43;6.20;96.50
39519;DHT22;25200;53.394;10.414;2024-02-14T04:11:09;6.20;96.50
39519;DHT22;25200;53.394;10.414;2024-02-14T04:13:35;6.20;96.50
39519;DHT22;25200;53.394;10.414;2024-02-14T04:16:00;6.20;96.50
39519;DHT22;25200;53.394;10.414;2024-02-14T04:18:26;6.20;96.50
39519;DHT22;25200;53.394;10.414;2024-02-14T04:20:51;6.20;96.50
39519;DHT22;25200;53.394;10.414;2024-02-14T04:23:17;6.20;96.50
39519;DHT22;25200;53.394;10.414;2024-02-14T04:25:43;6.20;96.50
39519;DHT22;25200;53.394;10.414;2024-02-14T04:28:09;6.20;96.50
39519;DHT22;25200;53.394;10.414;2024-02-14T04:30:37;6.20;96.50
39519;DHT22;25200;53.394;10.414;2024-02-14T04:33:03;6.20;96.50
39519;DHT22;25200;53.394;10.414;2024-02-14T04:35:30;6.20;96.50
39519;DHT22;25200;53.394;10.414;2024-02-14T04:37:55;6.20;96.50
39519;DHT22;25200;53.394;10.414;2024-02-14T04:40:21;6.20;96.50
39519;DHT22;25200;53.394;10.414;2024-02-14T04:42:47;6.20;96.60
39519;DHT22;25200;53.394;10.414;2024-02-14T04:45:13;6.20;96.50
39519;DHT22;25200;53.394;10.414;2024-02-14T04:47:38;6.20;96.50
39519;DHT22;25200;53.394;10.414;2024-02-14T04:50:04;6.20;96.50
39519;DHT22;25200;53.394;10.414;2024-02-14T04:52:30;6.20;96.50
39519;DHT22;25200;53.394;10.414;2024-02-14T04:54:56;6.20;96.60
39519;DHT22;25200;53.394;10.414;2024-02-14T04:57:22;6.20;96.80
39519;DHT22;25200;53.394;10.414;2024-02-14T04:59:47;6.20;96.60
39519;DHT22;25200;53.394;10.414;2024-02-14T05:02:13;6.20;96.60
39519;DHT22;25200;53.394;10.414;2024-02-14T05:04:39;6.30;96.60
39519;DHT22;25200;53.394;10.414;2024-02-14T05:07:05;6.20;96.60
39519;DHT22;25200;53.394;10.414;2024-02-14T05:09:30;6.30;96.60
39519;DHT22;25200;53.394;10.414;2024-02-14T05:11:56;6.20;96.50
39519;DHT22;25200;53.394;10.414;2024-02-14T05:14:22;6.30;96.60
39519;DHT22;25200;53.394;10.414;2024-02-14T05:16:48;6.30;96.60
39519;DHT22;25200;53.394;10.414;2024-02-14T05:19:14;6.30;96.60
39519;DHT22;25200;53.394;10.414;2024-02-14T05:21:39;6.30;96.60
39519;DHT22;25200;53.394;10.414;2024-02-14T05:24:05;6.30;96.60
39519;DHT22;25200;53.394;10.414;2024-02-14T05:26:32;6.30;96.60
39519;DHT22;25200;53.394;10.414;2024-02-14T05:28:57;6.30;96.60
39519;DHT22;25200;53.394;10.414;2024-02-14T05:31:24;6.30;96.60
39519;DHT22;25200;53.394;10.414;2024-02-14T05:33:50;6.30;96.60
39519;DHT22;25200;53.394;10.414;2024-02-14T05:36:15;6.30;96.60
39519;DHT22;25200;53.394;10.414;2024-02-14T05:38:41;6.30;96.60
39519;DHT22;25200;53.394;10.414;2024-02-14T05:41:07;6.30;96.60
39519;DHT22;25200;53.394;10.414;2024-02-14T05:43:33;6.30;96.60
39519;DHT22;25200;53.394;10.414;2024-02-14T05:45:59;6.30;96.60
39519;DHT22;25200;53.394;10.414;2024-02-14T05:48:25;6.30;96.60
39519;DHT22;25200;53.394;10.414;2024-02-14T05:50:51;6.30;96.60
39519;DHT22;25200;53.394;10.414;2024-02-14T05:53:17;6.30;96.60
39519;DHT22;25200;53.394;10.414;2024-02-14T05:55:42;6.30;96.60
39519;DHT22;25200;53.394;10.414;2024-02-14T05:58:08;6.30;96.80
39519;DHT22;25200;53.394;10.414;2024-02-14T06:00:34;6.30;96.60
39519;DHT22;25200;53.394;10.414;2024-02-14T06:03:00;6.30;96.90
39519;DHT22;25200;53.394;10.414;2024-02-14T06:05:25;6.40;96.70
39519;DHT22;25200;53.394;10.414;2024-02-14T06:07:51;6.40;96.70
39519;DHT22;25200;53.394;10.414;2024-02-14T06:10:17;6.30;96.60
39519;DHT22;25200;53.394;10.414;2024-02-14T06:12:43;6.30;96.70
39519;DHT22;25200;53.394;10.414;2024-02-14T06:15:10;6.40;96.70
39519;DHT22;25200;53.394;10.414;2024-02-14T06:17:35;6.40;96.70
39519;DHT22;25200;53.394;10.414;2024-02-14T06:20:01;6.30;96.70
39519;DHT22;25200;53.394;10.414;2024-02-14T06:22:33;6.40;96.70
39519;DHT22;25200;53.394;10.414;2024-02-14T06:24:59;6.40;96.70
39519;DHT22;25200;53.394;10.414;2024-02-14T06:27:25;6.40;96.70
39519;DHT22;25200;53.394;10.414;2024-02-14T06:29:50;6.40;96.70
39519;DHT22;25200;53.394;10.414;2024-02-14T06:32:16;6.40;96.70
39519;DHT22;25200;53.394;10.414;2024-02-14T06:34:42;6.40;96.70
39519;DHT22;25200;53.394;10.414;2024-02-14T06:37:07;6.40;96.70
39519;DHT22;25200;53.394;10.414;2024-02-14T06:39:33;6.40;96.70
39519;DHT22;25200;53.394;10.414;2024-02-14T06:41:58;6.40;96.70
39519;DHT22;25200;53.394;10.414;2024-02-14T06:44:24;6.40;96.70
39519;DHT22;25200;53.394;10.414;2024-02-14T06:46:50;6.40;96.70
39519;DHT22;25200;53.394;10.414;2024-02-14T06:49:16;6.40;96.70
39519;DHT22;25200;53.394;10.414;2024-02-14T06:51:42;6.40;96.70
39519;DHT22;25200;53.394;10.414;2024-02-14T06:54:08;6.40;96.70
39519;DHT22;25200;53.394;10.414;2024-02-14T06:56:35;6.40;96.70
39519;DHT22;25200;53.394;10.414;2024-02-14T06:59:01;6.40;96.70
39519;DHT22;25200;53.394;10.414;2024-02-14T07:01:31;6.50;96.70
39519;DHT22;25200;53.394;10.414;2024-02-14T07:03:57;6.50;96.70
39519;DHT22;25200;53.394;10.414;2024-02-14T07:06:23;6.50;96.70
39519;DHT22;25200;53.394;10.414;2024-02-14T07:08:49;6.40;96.70
39519;DHT22;25200;53.394;10.414;2024-02-14T07:11:16;6.50;96.80
39519;DHT22;25200;53.394;10.414;2024-02-14T07:13:42;6.50;96.70
39519;DHT22;25200;53.394;10.414;2024-02-14T07:16:08;6.50;96.70
39519;DHT22;25200;53.394;10.414;2024-02-14T07:18:34;6.50;96.80
39519;DHT22;25200;53.394;10.414;2024-02-14T07:21:00;6.50;96.70
39519;DHT22;25200;53.394;10.414;2024-02-14T07:23:27;6.50;96.70
39519;DHT22;25200;53.394;10.414;2024-02-14T07:25:53;6.50;96.70
39519;DHT22;25200;53.394;10.414;2024-02-14T07:28:18;6.50;96.70
39519;DHT22;25200;53.394;10.414;2024-02-14T07:30:44;6.50;96.70
39519;DHT22;25200;53.394;10.414;2024-02-14T07:33:10;6.60;96.80
39519;DHT22;25200;53.394;10.414;2024-02-14T07:35:38;6.50;96.70
39519;DHT22;25200;53.394;10.414;2024-02-14T07:38:04;6.60;96.70
39519;DHT22;25200;53.394;10.414;2024-02-14T07:40:30;6.60;96.70
39519;DHT22;25200;53.394;10.414;2024-02-14T07:42:59;6.60;96.80
39519;DHT22;25200;53.394;10.414;2024-02-14T07:45:24;6.60;96.70
39519;DHT22;25200;53.394;10.414;2024-02-14T07:47:50;6.60;96.70
39519;DHT22;25200;53.394;10.414;2024-02-14T07:50:16;6.60;96.70
39519;DHT22;25200;53.394;10.414;2024-02-14T07:52:46;6.60;96.70
39519;DHT22;25200;53.394;10.414;2024-02-14T07:55:12;6.60;96.70
39519;DHT22;25200;53.394;10.414;2024-02-14T07:57:39;6.60;96.70
39519;DHT22;25200;53.394;10.414;2024-02-14T08:00:05;6.70;96.70
39519;DHT22;25200;53.394;10.414;2024-02-14T08:02:33;6.70;96.70
39519;DHT22;25200;53.394;10.414;2024-02-14T08:04:59;6.70;96.70
39519;DHT22;25200;53.394;10.414;2024-02-14T08:07:25;6.70;96.70
39519;DHT22;25200;53.394;10.414;2024-02-14T08:09:50;6.70;96.70
39519;DHT22;25200;53.394;10.414;2024-02-14T08:12:16;6.70;96.70
39519;DHT22;25200;53.394;10.414;2024-02-14T08:14:41;6.70;96.70
39519;DHT22;25200;53.394;10.414;2024-02-14T08:17:07;6.80;96.70
39519;DHT22;25200;53.394;10.414;2024-02-14T08:19:32;6.80;96.70
39519;DHT22;25200;53.394;10.414;2024-02-14T08:21:58;6.80;96.70
39519;DHT22;25200;53.394;10.414;2024-02-14T08:24:26;6.80;96.70
39519;DHT22;25200;53.394;10.414;2024-02-14T08:26:52;6.80;96.70
39519;DHT22;25200;53.394;10.414;2024-02-14T08:29:17;6.90;96.80
39519;DHT22;25200;53.394;10.414;2024-02-14T08:31:43;6.80;96.70
39519;DHT22;25200;53.394;10.414;2024-02-14T08:34:09;6.90;96.80
39519;DHT22;25200;53.394;10.414;2024-02-14T08:36:35;6.90;96.80
39519;DHT22;25200;53.394;10.414;2024-02-14T08:39:09;7.00;96.80
39519;DHT22;25200;53.394;10.414;2024-02-14T08:41:39;7.00;96.90
39519;DHT22;25200;53.394;10.414;2024-02-14T08:44:06;7.00;97.00
39519;DHT22;25200;53.394;10.414;2024-02-14T08:46:32;7.10;97.00
39519;DHT22;25200;53.394;10.414;2024-02-14T08:49:00;7.10;97.10
39519;DHT22;25200;53.394;10.414;2024-02-14T08:51:28;7.10;97.00
39519;DHT22;25200;53.394;10.414;2024-02-14T08:53:53;7.20;97.20
39519;DHT22;25200;53.394;10.414;2024-02-14T08:56:21;7.20;97.20
39519;DHT22;25200;53.394;10.414;2024-02-14T08:58:48;7.20;97.40
39519;DHT22;25200;53.394;10.414;2024-02-14T09:01:14;7.30;97.20
39519;DHT22;25200;53.394;10.414;2024-02-14T09:03:43;7.30;97.30
39519;DHT22;25200;53.394;10.414;2024-02-14T09:06:13;7.30;97.30
39519;DHT22;25200;53.394;10.414;2024-02-14T09:08:40;7.40;97.30
39519;DHT22;25200;53.394;10.414;2024-02-14T09:11:06;7.40;97.30
39519;DHT22;25200;53.394;10.414;2024-02-14T09:13:32;7.40;97.30
39519;DHT22;25200;53.394;10.414;2024-02-14T09:15:57;7.50;97.40
39519;DHT22;25200;53.394;10.414;2024-02-14T09:18:23;7.50;97.40
39519;DHT22;25200;53.394;10.414;2024-02-14T09:20:50;7.60;97.40
39519;DHT22;25200;53.394;10.414;2024-02-14T09:23:16;7.60;97.40
39519;DHT22;25200;53.394;10.414;2024-02-14T09:25:46;7.60;97.40
39519;DHT22;25200;53.394;10.414;2024-02-14T09:28:12;7.70;97.50
39519;DHT22;25200;53.394;10.414;2024-02-14T09:30:39;7.70;97.40
39519;DHT22;25200;53.394;10.414;2024-02-14T09:33:05;7.70;97.50
39519;DHT22;25200;53.394;10.414;2024-02-14T09:35:31;7.80;97.50
39519;DHT22;25200;53.394;10.414;2024-02-14T09:37:56;7.80;97.50
39519;DHT22;25200;53.394;10.414;2024-02-14T09:40:22;7.80;97.60
39519;DHT22;25200;53.394;10.414;2024-02-14T09:42:53;7.90;97.60
39519;DHT22;25200;53.394;10.414;2024-02-14T09:45:20;7.90;97.60
39519;DHT22;25200;53.394;10.414;2024-02-14T09:47:48;8.00;97.70
39519;DHT22;25200;53.394;10.414;2024-02-14T09:50:14;8.00;97.60
39519;DHT22;25200;53.394;10.414;2024-02-14T09:52:41;8.10;97.70
39519;DHT22;25200;53.394;10.414;2024-02-14T09:55:09;8.10;97.70
39519;DHT22;25200;53.394;10.414;2024-02-14T09:57:36;8.10;97.70
39519;DHT22;25200;53.394;10.414;2024-02-14T10:00:03;8.20;97.70
39519;DHT22;25200;53.394;10.414;2024-02-14T10:02:30;8.20;97.80
39519;DHT22;25200;53.394;10.414;2024-02-14T10:04:56;8.30;97.90
39519;DHT22;25200;53.394;10.414;2024-02-14T10:07:22;8.30;97.80
39519;DHT22;25200;53.394;10.414;2024-02-14T10:09:47;8.40;97.80
39519;DHT22;25200;53.394;10.414;2024-02-14T10:12:14;8.40;97.80
39519;DHT22;25200;53.394;10.414;2024-02-14T10:14:39;8.40;97.90
39519;DHT22;25200;53.394;10.414;2024-02-14T10:17:06;8.50;97.90
39519;DHT22;25200;53.394;10.414;2024-02-14T10:19:33;8.60;98.00
39519;DHT22;25200;53.394;10.414;2024-02-14T10:22:00;8.60;98.00
39519;DHT22;25200;53.394;10.414;2024-02-14T10:24:28;8.60;97.90
39519;DHT22;25200;53.394;10.414;2024-02-14T10:26:54;8.70;97.90
39519;DHT22;25200;53.394;10.414;2024-02-14T10:29:23;8.70;97.90
39519;DHT22;25200;53.394;10.414;2024-02-14T10:31:50;8.70;98.00
39519;DHT22;25200;53.394;10.414;2024-02-14T10:34:16;8.80;98.10
39519;DHT22;25200;53.394;10.414;2024-02-14T10:36:43;8.80;98.00
39519;DHT22;25200;53.394;10.414;2024-02-14T10:39:13;8.80;98.10
39519;DHT22;25200;53.394;10.414;2024-02-14T10:41:41;8.90;98.10
39519;DHT22;25200;53.394;10.414;2024-02-14T10:44:06;8.90;98.10
39519;DHT22;25200;53.394;10.414;2024-02-14T10:46:34;9.00;98.10
39519;DHT22;25200;53.394;10.414;2024-02-14T10:49:05;9.00;98.20
39519;DHT22;25200;53.394;10.414;2024-02-14T10:51:33;9.00;98.20
39519;DHT22;25200;53.394;10.414;2024-02-14T10:54:09;9.10;98.30
39519;DHT22;25200;53.394;10.414;2024-02-14T10:56:39;9.10;98.30
39519;DHT22;25200;53.394;10.414;2024-02-14T10:59:06;9.10;98.30
39519;DHT22;25200;53.394;10.414;2024-02-14T11:01:34;9.20;98.30
39519;DHT22;25200;53.394;10.414;2024-02-14T11:04:02;9.20;98.30
39519;DHT22;25200;53.394;10.414;2024-02-14T11:06:30;9.20;98.30
39519;DHT22;25200;53.394;10.414;2024-02-14T11:11:21;9.30;98.30
39519;DHT22;25200;53.394;10.414;2024-02-14T11:13:52;9.30;98.40
39519;DHT22;25200;53.394;10.414;2024-02-14T11:16:18;9.30;98.40
39519;DHT22;25200;53.394;10.414;2024-02-14T11:18:48;9.40;98.40
39519;DHT22;25200;53.394;10.414;2024-02-14T11:21:17;9.40;98.50
39519;DHT22;25200;53.394;10.414;2024-02-14T11:23:53;9.40;98.50
39519;DHT22;25200;53.394;10.414;2024-02-14T11:26:19;9.50;98.50
39519;DHT22;25200;53.394;10.414;2024-02-14T11:28:45;9.50;98.50
39519;DHT22;25200;53.394;10.414;2024-02-14T11:31:16;9.50;98.60
39519;DHT22;25200;53.394;10.414;2024-02-14T11:33:43;9.60;98.60
39519;DHT22;25200;53.394;10.414;2024-02-14T11:36:12;9.60;98.60
39519;DHT22;25200;53.394;10.414;2024-02-14T11:38:40;9.70;98.60
39519;DHT22;25200;53.394;10.414;2024-02-14T11:41:06;9.70;98.60
39519;DHT22;25200;53.394;10.414;2024-02-14T11:43:32;9.70;98.60
39519;DHT22;25200;53.394;10.414;2024-02-14T11:45:58;9.80;98.60
39519;DHT22;25200;53.394;10.414;2024-02-14T11:48:24;9.80;98.70
39519;DHT22;25200;53.394;10.414;2024-02-14T11:50:52;9.80;98.70
39519;DHT22;25200;53.394;10.414;2024-02-14T11:53:18;9.90;98.90
39519;DHT22;25200;53.394;10.414;2024-02-14T11:55:45;9.90;98.70
39519;DHT22;25200;53.394;10.414;2024-02-14T11:58:15;9.90;98.80
39519;DHT22;25200;53.394;10.414;2024-02-14T12:00:44;10.00;98.80
39519;DHT22;25200;53.394;10.414;2024-02-14T12:03:15;10.00;98.80
39519;DHT22;25200;53.394;10.414;2024-02-14T12:05:41;10.00;98.90
39519;DHT22;25200;53.394;10.414;2024-02-14T12:08:09;10.00;98.80
39519;DHT22;25200;53.394;10.414;2024-02-14T12:10:36;10.00;98.90
39519;DHT22;25200;53.394;10.414;2024-02-14T12:13:15;10.00;98.90
39519;DHT22;25200;53.394;10.414;2024-02-14T12:15:42;10.10;98.80
39519;DHT22;25200;53.394;10.414;2024-02-14T12:18:09;10.10;98.80
39519;DHT22;25200;53.394;10.414;2024-02-14T12:20:36;10.10;98.90
39519;DHT22;25200;53.394;10.414;2024-02-14T12:23:02;10.20;98.90
39519;DHT22;25200;53.394;10.414;2024-02-14T12:25:29;10.20;99.10
39519;DHT22;25200;53.394;10.414;2024-02-14T12:27:56;10.20;99.00
39519;DHT22;25200;53.394;10.414;2024-02-14T12:30:28;10.20;99.00
39519;DHT22;25200;53.394;10.414;2024-02-14T12:32:59;10.20;99.10
39519;DHT22;25200;53.394;10.414;2024-02-14T12:35:25;10.30;99.10
39519;DHT22;25200;53.394;10.414;2024-02-14T12:37:50;10.30;99.10
39519;DHT22;25200;53.394;10.414;2024-02-14T12:40:16;10.30;99.00
39519;DHT22;25200;53.394;10.414;2024-02-14T12:42:42;10.30;99.10
39519;DHT22;25200;53.394;10.414;2024-02-14T12:45:07;10.40;99.30
39519;DHT22;25200;53.394;10.414;2024-02-14T12:47:34;10.40;99.20
39519;DHT22;25200;53.394;10.414;2024-02-14T12:50:01;10.40;99.00
39519;DHT22;25200;53.394;10.414;2024-02-14T12:52:26;10.40;99.20
39519;DHT22;25200;53.394;10.414;2024-02-14T12:54:52;10.40;99.20
39519;DHT22;25200;53.394;10.414;2024-02-14T12:57:18;10.50;99.20
39519;DHT22;25200;53.394;10.414;2024-02-14T12:59:46;10.50;99.20
39519;DHT22;25200;53.394;10.414;2024-02-14T13:02:12;10.50;99.20
39519;DHT22;25200;53.394;10.414;2024-02-14T13:04:37;10.50;99.20
39519;DHT22;25200;53.394;10.414;2024-02-14T13:07:04;10.60;99.20
39519;DHT22;25200;53.394;10.414;2024-02-14T13:09:30;10.60;99.30
39519;DHT22;25200;53.394;10.414;2024-02-14T13:11:56;10.60;99.20
39519;DHT22;25200;53.394;10.414;2024-02-14T13:14:21;10.60;99.40
39519;DHT22;25200;53.394;10.414;2024-02-14T13:16:47;10.60;99.20
39519;DHT22;25200;53.394;10.414;2024-02-14T13:19:13;10.70;99.30
39519;DHT22;25200;53.394;10.414;2024-02-14T13:21:38;10.70;99.40
39519;DHT22;25200;53.394;10.414;2024-02-14T13:24:05;10.70;99.30
39519;DHT22;25200;53.394;10.414;2024-02-14T13:26:31;10.70;99.30
39519;DHT22;25200;53.394;10.414;2024-02-14T13:28:56;10.80;99.30
39519;DHT22;25200;53.394;10.414;2024-02-14T13:31:22;10.80;99.30
39519;DHT22;25200;53.394;10.414;2024-02-14T13:33:47;10.80;99.30
39519;DHT22;25200;53.394;10.414;2024-02-14T13:36:13;10.80;99.30
39519;DHT22;25200;53.394;10.414;2024-02-14T13:38:42;10.80;99.30
39519;DHT22;25200;53.394;10.414;2024-02-14T13:41:09;10.80;99.40
39519;DHT22;25200;53.394;10.414;2024-02-14T13:43:37;10.80;99.30
39519;DHT22;25200;53.394;10.414;2024-02-14T13:46:02;10.80;99.30
39519;DHT22;25200;53.394;10.414;2024-02-14T13:48:28;10.80;99.40
39519;DHT22;25200;53.394;10.414;2024-02-14T13:50:53;10.80;99.40
39519;DHT22;25200;53.394;10.414;2024-02-14T13:53:20;10.80;99.40
39519;DHT22;25200;53.394;10.414;2024-02-14T13:55:48;10.80;99.40
39519;DHT22;25200;53.394;10.414;2024-02-14T13:58:13;10.90;99.40
39519;DHT22;25200;53.394;10.414;2024-02-14T14:00:42;10.90;99.40
39519;DHT22;25200;53.394;10.414;2024-02-14T14:03:08;10.90;99.40
39519;DHT22;25200;53.394;10.414;2024-02-14T14:05:33;10.90;99.40
39519;DHT22;25200;53.394;10.414;2024-02-14T14:07:59;10.90;99.40
39519;DHT22;25200;53.394;10.414;2024-02-14T14:10:26;10.90;99.40
39519;DHT22;25200;53.394;10.414;2024-02-14T14:12:53;10.90;99.70
39519;DHT22;25200;53.394;10.414;2024-02-14T14:15:19;10.90;99.40
39519;DHT22;25200;53.394;10.414;2024-02-14T14:17:44;10.90;99.40
39519;DHT22;25200;53.394;10.414;2024-02-14T14:20:10;11.00;99.40
39519;DHT22;25200;53.394;10.414;2024-02-14T14:22:36;11.00;99.50
39519;DHT22;25200;53.394;10.414;2024-02-14T14:25:04;11.00;99.40
39519;DHT22;25200;53.394;10.414;2024-02-14T14:27:30;11.00;99.50
39519;DHT22;25200;53.394;10.414;2024-02-14T14:29:55;11.00;99.40
39519;DHT22;25200;53.394;10.414;2024-02-14T14:32:21;11.00;99.40
39519;DHT22;25200;53.394;10.414;2024-02-14T14:34:47;11.00;99.40
39519;DHT22;25200;53.394;10.414;2024-02-14T14:37:12;11.00;99.40
39519;DHT22;25200;53.394;10.414;2024-02-14T14:39:38;11.00;99.50
39519;DHT22;25200;53.394;10.414;2024-02-14T14:42:03;11.00;99.40
39519;DHT22;25200;53.394;10.414;2024-02-14T14:44:29;11.00;99.40
39519;DHT22;25200;53.394;10.414;2024-02-14T14:46:56;11.00;99.40
39519;DHT22;25200;53.394;10.414;2024-02-14T14:49:22;11.10;99.50
39519;DHT22;25200;53.394;10.414;2024-02-14T14:51:47;11.00;99.40
39519;DHT22;25200;53.394;10.414;2024-02-14T14:54:13;11.10;99.50
39519;DHT22;25200;53.394;10.414;2024-02-14T14:56:39;11.10;99.50
39519;DHT22;25200;53.394;10.414;2024-02-14T14:59:04;11.10;99.50
39519;DHT22;25200;53.394;10.414;2024-02-14T15:01:31;11.10;99.50
39519;DHT22;25200;53.394;10.414;2024-02-14T15:03:59;11.10;99.50
39519;DHT22;25200;53.394;10.414;2024-02-14T15:06:25;11.10;99.50
39519;DHT22;25200;53.394;10.414;2024-02-14T15:08:51;11.10;99.50
39519;DHT22;25200;53.394;10.414;2024-02-14T15:11:16;11.10;99.50
39519;DHT22;25200;53.394;10.414;2024-02-14T15:13:44;11.10;99.50
39519;DHT22;25200;53.394;10.414;2024-02-14T15:16:10;11.10;99.50
39519;DHT22;25200;53.394;10.414;2024-02-14T15:18:36;11.10;99.50
39519;DHT22;25200;53.394;10.414;2024-02-14T15:21:02;11.10;99.50
39519;DHT22;25200;53.394;10.414;2024-02-14T15:23:28;11.10;99.50
39519;DHT22;25200;53.394;10.414;2024-02-14T15:25:54;11.10;99.50